createdAt,value
2022-11-04T00:00:01.480Z,11.10
2022-11-04T00:02:29.759Z,11.20
2022-11-04T00:05:00.970Z,11.10
2022-11-04T00:07:48.263Z,11.10
2022-11-04T00:10:42.108Z,11.20
2022-11-04T00:13:09.522Z,11.20
2022-11-04T00:16:00.360Z,11.20
2022-11-04T00:18:29.108Z,11.20
2022-11-04T00:21:16.809Z,11.20
2022-11-04T00:24:09.421Z,11.20
2022-11-04T00:26:57.259Z,11.20
2022-11-04T00:29:28.348Z,11.20
2022-11-04T00:32:14.139Z,11.20
2022-11-04T00:35:05.769Z,11.20
2022-11-04T00:37:36.882Z,11.20
2022-11-04T00:40:18.762Z,11.20
2022-11-04T00:43:03.760Z,11.10
2022-11-04T00:45:51.674Z,11.10
2022-11-04T00:48:20.567Z,11.10
2022-11-04T00:50:50.656Z,11.10
2022-11-04T00:53:19.347Z,11.10
2022-11-04T00:55:48.267Z,11.10
2022-11-04T00:58:18.127Z,11.10
2022-11-04T01:00:47.586Z,11.10
2022-11-04T01:03:20.203Z,11.00
2022-11-04T01:05:48.600Z,11.10
2022-11-04T01:08:23.289Z,11.10
2022-11-04T01:10:51.926Z,11.10
2022-11-04T01:13:22.123Z,11.10
2022-11-04T01:15:50.321Z,11.10
2022-11-04T01:18:18.719Z,11.20
2022-11-04T01:20:52.459Z,11.20
2022-11-04T01:23:31.094Z,11.10
2022-11-04T01:26:05.145Z,11.20
2022-11-04T01:28:38.862Z,11.20
2022-11-04T01:31:08.947Z,11.20
2022-11-04T01:33:41.547Z,11.20
2022-11-04T01:36:15.241Z,11.20
2022-11-04T01:38:47.107Z,11.20
2022-11-04T01:41:21.042Z,11.20
2022-11-04T01:43:54.482Z,11.20
2022-11-04T01:46:32.149Z,11.20
2022-11-04T01:49:05.694Z,11.20
2022-11-04T01:51:38.221Z,11.20
2022-11-04T01:54:08.163Z,11.20
2022-11-04T01:56:37.548Z,11.20
2022-11-04T01:59:12.596Z,11.30
2022-11-04T02:01:41.110Z,11.20
2022-11-04T02:04:27.185Z,11.20
2022-11-04T02:06:58.151Z,11.30
2022-11-04T02:09:30.413Z,11.20
2022-11-04T02:12:17.408Z,11.20
2022-11-04T02:14:50.537Z,11.20
2022-11-04T02:17:41.164Z,11.20
2022-11-04T02:20:42.576Z,11.10
2022-11-04T02:23:42.014Z,11.10
2022-11-04T02:26:43.069Z,11.10
2022-11-04T02:29:26.413Z,11.20
2022-11-04T02:32:06.832Z,11.10
2022-11-04T02:34:44.622Z,11.10
2022-11-04T02:37:25.619Z,11.00
2022-11-04T02:40:11.647Z,11.00
2022-11-04T02:42:50.518Z,11.00
2022-11-04T02:45:26.052Z,11.10
2022-11-04T02:48:21.097Z,11.00
2022-11-04T02:51:04.053Z,11.00
2022-11-04T02:53:46.459Z,11.00
2022-11-04T02:56:17.875Z,11.00
2022-11-04T02:58:51.775Z,11.00
2022-11-04T03:01:26.205Z,11.00
2022-11-04T03:04:02.269Z,11.00
2022-11-04T03:06:38.394Z,11.00
2022-11-04T03:09:07.839Z,10.90
2022-11-04T03:11:38.118Z,10.90
2022-11-04T03:14:20.004Z,10.90
2022-11-04T03:16:57.257Z,10.90
2022-11-04T03:19:35.211Z,10.80
2022-11-04T03:22:10.155Z,10.80
2022-11-04T03:24:39.113Z,10.70
2022-11-04T03:27:15.876Z,10.70
2022-11-04T03:29:51.498Z,10.70
2022-11-04T03:32:28.261Z,10.70
2022-11-04T03:34:58.716Z,10.70
2022-11-04T03:37:36.867Z,10.60
2022-11-04T03:40:26.680Z,10.60
2022-11-04T03:43:00.787Z,10.60
2022-11-04T03:45:39.643Z,10.70
2022-11-04T03:48:09.781Z,10.70
2022-11-04T03:50:44.108Z,10.60
2022-11-04T03:53:16.779Z,10.60
2022-11-04T03:55:59.067Z,10.60
2022-11-04T03:58:37.044Z,10.60
2022-11-04T04:01:15.885Z,10.60
2022-11-04T04:03:53.289Z,10.50
2022-11-04T04:06:28.883Z,10.50
2022-11-04T04:09:02.365Z,10.60
2022-11-04T04:11:43.578Z,10.50
2022-11-04T04:14:35.775Z,10.50
2022-11-04T04:17:20.854Z,10.50
2022-11-04T04:20:07.620Z,10.50
2022-11-04T04:22:39.310Z,10.50
2022-11-04T04:25:28.918Z,10.50
2022-11-04T04:28:03.187Z,10.50
2022-11-04T04:30:32.415Z,10.50
2022-11-04T04:33:05.529Z,10.40
2022-11-04T04:35:51.860Z,10.40
2022-11-04T04:38:43.262Z,10.30
2022-11-04T04:41:32.520Z,10.30
2022-11-04T04:44:21.762Z,10.30
2022-11-04T04:46:53.351Z,10.20
2022-11-04T04:49:23.556Z,10.10
2022-11-04T04:51:53.563Z,10.10
2022-11-04T04:54:21.839Z,10.10
2022-11-04T04:56:50.289Z,10.10
2022-11-04T04:59:23.203Z,10.10
2022-11-04T05:01:53.948Z,10.00
2022-11-04T05:04:22.530Z,10.00
2022-11-04T05:06:53.777Z,10.00
2022-11-04T05:09:23.149Z,10.00
2022-11-04T05:11:52.843Z,10.10
2022-11-04T05:14:21.509Z,10.10
2022-11-04T05:16:50.004Z,10.10
2022-11-04T05:19:18.238Z,10.10
2022-11-04T05:21:47.385Z,10.10
2022-11-04T05:24:17.750Z,10.10
2022-11-04T05:26:46.203Z,10.00
2022-11-04T05:31:48.280Z,10.00
2022-11-04T05:34:16.938Z,10.00
2022-11-04T05:36:45.782Z,10.00
2022-11-04T05:39:19.440Z,10.10
2022-11-04T05:41:48.065Z,10.00
2022-11-04T05:44:17.126Z,10.10
2022-11-04T05:46:45.425Z,10.00
2022-11-04T05:49:13.908Z,10.10
2022-11-04T05:51:44.470Z,10.10
2022-11-04T05:54:15.274Z,10.20
2022-11-04T05:56:45.764Z,10.10
2022-11-04T05:59:14.685Z,10.20
2022-11-04T06:01:52.138Z,10.20
2022-11-04T06:04:21.323Z,10.20
2022-11-04T06:06:51.154Z,10.10
2022-11-04T06:09:19.871Z,10.20
2022-11-04T06:11:49.636Z,10.20
2022-11-04T06:14:19.069Z,10.20
2022-11-04T06:16:47.845Z,10.10
2022-11-04T06:19:16.915Z,10.20
2022-11-04T06:21:46.037Z,10.20
2022-11-04T06:24:23.790Z,10.10
2022-11-04T06:26:54.678Z,10.10
2022-11-04T06:29:26.852Z,10.10
2022-11-04T06:31:55.003Z,10.10
2022-11-04T06:34:23.507Z,10.10
2022-11-04T06:36:52.260Z,10.10
2022-11-04T06:39:22.009Z,10.10
2022-11-04T06:41:51.808Z,10.00
2022-11-04T06:44:22.721Z,10.00
2022-11-04T06:46:52.131Z,10.00
2022-11-04T06:49:23.169Z,9.90
2022-11-04T06:51:52.150Z,10.00
2022-11-04T06:54:23.431Z,10.00
2022-11-04T06:56:51.713Z,9.90
2022-11-04T06:59:26.339Z,9.90
2022-11-04T07:01:54.705Z,9.90
2022-11-04T07:04:23.786Z,9.90
2022-11-04T07:06:53.441Z,10.00
2022-11-04T07:09:21.816Z,10.10
2022-11-04T07:24:16.816Z,10.30
2022-11-04T07:26:57.442Z,10.40
2022-11-04T07:29:28.809Z,10.40
2022-11-04T07:32:59.831Z,10.40
2022-11-04T07:39:09.892Z,10.50
2022-11-04T07:41:40.229Z,10.60
2022-11-04T07:44:08.832Z,10.50
2022-11-04T07:46:37.296Z,10.60
2022-11-04T07:49:06.330Z,10.50
2022-11-04T07:51:35.439Z,10.40
2022-11-04T07:54:05.888Z,10.40
2022-11-04T07:56:41.932Z,10.50
2022-11-04T07:59:11.279Z,10.50
2022-11-04T08:01:42.149Z,10.50
2022-11-04T08:04:14.148Z,10.60
2022-11-04T08:06:42.642Z,10.50
2022-11-04T08:09:17.500Z,10.50
2022-11-04T08:11:51.355Z,10.50
2022-11-04T08:14:19.658Z,10.50
2022-11-04T08:16:53.191Z,10.40
2022-11-04T08:19:33.901Z,10.40
2022-11-04T08:22:03.842Z,10.50
2022-11-04T08:24:32.946Z,10.40
2022-11-04T08:27:04.815Z,10.50
2022-11-04T08:29:46.481Z,10.50
2022-11-04T08:32:15.067Z,10.60
2022-11-04T08:34:43.659Z,10.60
2022-11-04T08:37:15.044Z,10.70
2022-11-04T08:39:53.756Z,10.70
2022-11-04T08:42:23.580Z,10.70
2022-11-04T08:44:55.222Z,10.80
2022-11-04T08:47:42.784Z,10.80
2022-11-04T08:50:11.684Z,10.90
2022-11-04T08:52:40.190Z,10.90
2022-11-04T08:55:15.920Z,10.80
2022-11-04T08:57:46.491Z,10.80
2022-11-04T09:00:20.053Z,10.70
2022-11-04T09:02:49.259Z,10.70
2022-11-04T09:05:18.118Z,10.70
2022-11-04T09:07:50.873Z,10.80
2022-11-04T09:10:28.391Z,10.90
2022-11-04T09:12:58.556Z,10.90
2022-11-04T09:15:31.972Z,10.80
2022-11-04T09:18:18.858Z,10.90
2022-11-04T09:24:01.185Z,10.90
2022-11-04T09:33:52.059Z,11.30
2022-11-04T09:36:26.262Z,11.40
2022-11-04T09:38:55.455Z,11.50
2022-11-04T09:41:56.611Z,11.60
2022-11-04T09:44:28.378Z,11.50
2022-11-04T09:47:04.556Z,11.60
2022-11-04T09:49:52.387Z,11.60
2022-11-04T09:52:29.209Z,11.60
2022-11-04T09:55:02.727Z,11.70
2022-11-04T09:57:31.416Z,11.70
2022-11-04T10:00:07.083Z,11.70
2022-11-04T10:02:51.329Z,11.60
2022-11-04T10:05:50.734Z,11.60
2022-11-04T10:08:44.716Z,11.50
2022-11-04T10:11:24.298Z,11.60
2022-11-04T10:14:09.213Z,11.60
2022-11-04T10:16:59.553Z,11.70
2022-11-04T10:19:50.809Z,11.70
2022-11-04T10:22:31.506Z,11.80
2022-11-04T10:25:12.983Z,11.90
2022-11-04T10:27:45.341Z,12.00
2022-11-04T10:30:18.319Z,12.00
2022-11-04T10:32:59.641Z,12.00
2022-11-04T10:35:36.273Z,12.10
2022-11-04T10:38:21.353Z,12.10
2022-11-04T10:40:52.306Z,12.10
2022-11-04T10:43:32.719Z,12.10
2022-11-04T10:46:38.097Z,12.10
2022-11-04T10:49:30.749Z,12.30
2022-11-04T10:51:59.556Z,12.30
2022-11-04T10:54:30.494Z,12.20
2022-11-04T10:57:01.316Z,12.20
2022-11-04T10:59:31.783Z,12.20
2022-11-04T11:02:03.623Z,12.20
2022-11-04T11:04:33.820Z,12.20
2022-11-04T11:07:04.609Z,12.10
2022-11-04T11:09:36.897Z,12.10
2022-11-04T11:12:44.194Z,12.00
2022-11-04T11:14:59.491Z,12.00
2022-11-04T11:17:38.854Z,12.00
2022-11-04T11:20:38.196Z,12.10
2022-11-04T11:23:09.996Z,12.20
2022-11-04T11:25:45.993Z,12.30
2022-11-04T11:28:23.860Z,12.30
2022-11-04T11:31:00.882Z,12.40
2022-11-04T11:33:34.980Z,12.40
2022-11-04T11:36:17.422Z,12.40
2022-11-04T11:39:08.003Z,12.40
2022-11-04T11:41:53.750Z,12.30
2022-11-04T11:44:28.703Z,12.30
2022-11-04T11:47:01.624Z,12.30
2022-11-04T11:49:35.510Z,12.30
2022-11-04T11:52:48.463Z,12.30
2022-11-04T11:55:21.260Z,12.40
2022-11-04T12:01:02.098Z,12.60
2022-11-04T12:09:38.016Z,13.00
2022-11-04T12:12:37.599Z,13.10
2022-11-04T12:15:20.363Z,13.00
2022-11-04T12:18:01.829Z,13.10
2022-11-04T12:21:00.776Z,13.10
2022-11-04T12:23:32.723Z,13.10
2022-11-04T12:26:15.183Z,13.20
2022-11-04T12:28:57.228Z,13.20
2022-11-04T12:31:39.041Z,13.20
2022-11-04T12:34:14.939Z,13.10
2022-11-04T12:37:02.610Z,13.00
2022-11-04T12:39:51.219Z,12.90
2022-11-04T12:42:33.320Z,13.00
2022-11-04T12:45:15.916Z,13.20
2022-11-04T12:47:52.003Z,13.10
2022-11-04T12:50:42.576Z,13.10
2022-11-04T12:53:36.601Z,13.20
2022-11-04T12:56:10.296Z,13.20
2022-11-04T12:58:49.787Z,13.20
2022-11-04T13:01:23.384Z,13.20
2022-11-04T13:03:58.902Z,13.30
2022-11-04T13:06:32.389Z,13.20
2022-11-04T13:09:06.665Z,13.10
2022-11-04T13:11:41.007Z,13.10
2022-11-04T13:14:17.234Z,13.10
2022-11-04T13:16:48.612Z,13.00
2022-11-04T13:19:29.148Z,12.80
2022-11-04T13:21:58.264Z,12.80
2022-11-04T13:24:31.738Z,12.90
2022-11-04T13:27:04.333Z,12.80
2022-11-04T13:29:38.192Z,12.80
2022-11-04T13:32:13.808Z,12.70
2022-11-04T13:34:52.612Z,12.60
2022-11-04T13:37:28.443Z,12.60
2022-11-04T13:40:01.922Z,12.60
2022-11-04T13:42:47.743Z,12.50
2022-11-04T13:45:20.322Z,12.40
2022-11-04T13:47:51.807Z,12.50
2022-11-04T13:50:37.750Z,12.50
2022-11-04T13:53:10.045Z,12.50
2022-11-04T13:55:50.762Z,12.50
2022-11-04T13:58:26.459Z,12.50
2022-11-04T14:01:14.233Z,12.50
2022-11-04T14:03:54.407Z,12.60
2022-11-04T14:06:50.143Z,12.50
2022-11-04T14:10:01.172Z,12.60
2022-11-04T14:12:36.953Z,12.60
2022-11-04T14:15:12.768Z,12.60
2022-11-04T14:18:52.144Z,12.60
2022-11-04T14:21:29.518Z,12.60
2022-11-04T14:24:03.252Z,12.60
2022-11-04T14:26:44.122Z,12.60
2022-11-04T14:29:28.313Z,12.70
2022-11-04T14:31:58.963Z,12.70
2022-11-04T14:34:36.182Z,12.70
2022-11-04T14:37:11.016Z,12.70
2022-11-04T14:39:42.281Z,12.70
2022-11-04T14:42:15.804Z,12.70
2022-11-04T14:44:54.252Z,12.70
2022-11-04T14:47:30.294Z,12.60
2022-11-04T14:50:04.733Z,12.60
2022-11-04T14:52:39.854Z,12.50
2022-11-04T14:55:16.949Z,12.60
2022-11-04T14:57:52.368Z,12.60
2022-11-04T15:01:02.866Z,12.60
2022-11-04T15:09:25.312Z,12.60
2022-11-04T15:12:23.463Z,12.60
2022-11-04T15:14:55.565Z,12.60
2022-11-04T15:17:30.801Z,12.60
2022-11-04T15:20:02.187Z,12.60
2022-11-04T15:22:32.176Z,12.50
2022-11-04T15:25:08.067Z,12.50
2022-11-04T15:27:39.287Z,12.50
2022-11-04T15:30:43.598Z,12.50
2022-11-04T15:33:18.277Z,12.40
2022-11-04T15:35:47.121Z,12.40
2022-11-04T15:38:21.428Z,12.40
2022-11-04T15:40:56.665Z,12.30
2022-11-04T15:43:28.925Z,12.30
2022-11-04T15:46:10.537Z,12.20
2022-11-04T15:48:40.051Z,12.20
2022-11-04T15:51:37.771Z,12.20
2022-11-04T15:58:07.669Z,12.10
2022-11-04T16:00:38.122Z,12.00
2022-11-04T16:03:15.536Z,12.00
2022-11-04T16:05:46.570Z,12.00
2022-11-04T16:08:24.488Z,12.00
2022-11-04T16:11:10.368Z,12.00
2022-11-04T16:13:45.042Z,11.90
2022-11-04T16:16:28.131Z,11.90
2022-11-04T16:18:58.951Z,11.90
2022-11-04T16:21:35.044Z,11.80
2022-11-04T16:24:08.828Z,11.80
2022-11-04T16:26:41.425Z,11.80
2022-11-04T16:29:15.296Z,11.70
2022-11-04T16:31:45.217Z,11.70
2022-11-04T16:34:14.777Z,11.80
2022-11-04T16:36:43.594Z,11.70
2022-11-04T16:39:12.215Z,11.70
2022-11-04T16:41:43.730Z,11.70
2022-11-04T16:44:20.655Z,11.70
2022-11-04T16:46:50.682Z,11.70
2022-11-04T16:49:21.691Z,11.80
2022-11-04T16:51:57.900Z,11.80
2022-11-04T16:54:27.580Z,11.80
2022-11-04T16:56:56.632Z,11.80
2022-11-04T16:59:25.614Z,11.80
2022-11-04T17:01:55.994Z,11.80
2022-11-04T17:04:25.063Z,11.70
2022-11-04T17:06:53.739Z,11.80
2022-11-04T17:09:26.854Z,11.80
2022-11-04T17:11:55.679Z,11.80
2022-11-04T17:14:23.867Z,11.80
2022-11-04T17:16:52.285Z,11.80
2022-11-04T17:19:23.387Z,11.80
2022-11-04T17:21:52.297Z,11.80
2022-11-04T17:24:20.700Z,11.80
2022-11-04T17:26:50.234Z,11.80
2022-11-04T17:29:18.720Z,11.80
2022-11-04T17:31:47.212Z,11.80
2022-11-04T17:34:15.488Z,11.80
2022-11-04T17:36:45.503Z,11.70
2022-11-04T17:39:15.942Z,11.70
2022-11-04T17:42:01.791Z,11.70
2022-11-04T17:44:30.346Z,11.70
2022-11-04T17:47:00.493Z,11.70
2022-11-04T17:49:29.830Z,11.70
2022-11-04T17:52:01.315Z,11.70
2022-11-04T17:54:31.149Z,11.40
2022-11-04T17:56:59.658Z,11.40
2022-11-04T17:59:31.196Z,11.50
2022-11-04T18:02:03.961Z,11.50
2022-11-04T18:04:32.473Z,11.50
2022-11-04T18:07:03.959Z,11.40
2022-11-04T18:09:33.922Z,11.40
2022-11-04T18:12:19.856Z,11.40
2022-11-04T18:14:48.623Z,11.40
2022-11-04T18:17:19.109Z,11.30
2022-11-04T18:19:49.689Z,11.20
2022-11-04T18:22:23.746Z,11.20
2022-11-04T18:24:52.062Z,11.20
2022-11-04T18:27:27.754Z,11.10
2022-11-04T18:29:56.050Z,11.20
2022-11-04T18:32:27.392Z,11.20
2022-11-04T18:34:56.502Z,11.10
2022-11-04T18:37:26.547Z,11.10
2022-11-04T18:40:02.786Z,11.10
2022-11-04T18:42:31.073Z,11.20
2022-11-04T18:45:03.058Z,11.20
2022-11-04T18:47:31.672Z,11.20
2022-11-04T18:49:59.949Z,11.30
2022-11-04T18:52:29.927Z,11.30
2022-11-04T18:54:59.585Z,11.30
2022-11-04T18:57:28.653Z,11.30
2022-11-04T18:59:57.169Z,11.40
2022-11-04T19:02:25.485Z,11.30
2022-11-04T19:04:55.425Z,11.30
2022-11-04T19:07:23.996Z,11.20
2022-11-04T19:09:56.025Z,11.20
2022-11-04T19:12:49.849Z,11.10
2022-11-04T19:15:18.518Z,11.00
2022-11-04T19:18:30.828Z,11.00
2022-11-04T19:21:12.000Z,11.00
2022-11-04T19:23:41.424Z,10.90
2022-11-04T19:26:14.034Z,10.80
2022-11-04T19:28:48.571Z,10.80
2022-11-04T19:31:21.426Z,10.80
2022-11-04T19:33:50.917Z,10.80
2022-11-04T19:36:22.304Z,10.80
2022-11-04T19:38:54.671Z,10.80
2022-11-04T19:41:43.221Z,10.80
2022-11-04T19:44:13.878Z,10.90
2022-11-04T19:46:42.576Z,10.90
2022-11-04T19:49:14.175Z,10.80
2022-11-04T19:51:45.105Z,10.80
2022-11-04T19:54:14.313Z,10.80
2022-11-04T19:56:44.330Z,10.90
2022-11-04T19:59:14.011Z,11.00
2022-11-04T20:01:42.694Z,10.90
2022-11-04T20:04:12.541Z,10.90
2022-11-04T20:06:40.876Z,10.90
2022-11-04T20:09:11.090Z,11.00
2022-11-04T20:12:00.322Z,11.00
2022-11-04T20:14:29.320Z,11.00
2022-11-04T20:16:57.688Z,11.10
2022-11-04T20:19:26.062Z,11.00
2022-11-04T20:21:54.410Z,11.10
2022-11-04T20:24:24.107Z,11.10
2022-11-04T20:26:52.506Z,11.20
2022-11-04T20:29:21.128Z,11.20
2022-11-04T20:31:51.212Z,11.10
2022-11-04T20:34:19.470Z,11.00
2022-11-04T20:36:47.646Z,11.00
2022-11-04T20:39:18.499Z,10.90
2022-11-04T20:41:47.579Z,10.90
2022-11-04T20:44:16.655Z,10.90
2022-11-04T20:46:45.639Z,11.00
2022-11-04T20:49:17.298Z,11.00
2022-11-04T20:51:54.403Z,10.90
2022-11-04T20:54:25.001Z,10.80
2022-11-04T20:56:53.478Z,10.80
2022-11-04T20:59:21.946Z,10.70
2022-11-04T21:01:50.467Z,10.80
2022-11-04T21:04:22.085Z,10.80
2022-11-04T21:06:53.149Z,10.70
2022-11-04T21:09:22.955Z,10.70
2022-11-04T21:11:53.370Z,10.80
2022-11-04T21:14:21.933Z,10.80
2022-11-04T21:16:51.605Z,10.80
2022-11-04T21:19:22.143Z,10.70
2022-11-04T21:21:50.519Z,10.70
2022-11-04T21:24:19.075Z,10.70
2022-11-04T21:26:48.042Z,10.80
2022-11-04T21:29:19.392Z,10.80
2022-11-04T21:31:49.392Z,10.80
2022-11-04T21:34:18.000Z,10.70
2022-11-04T21:36:51.383Z,10.70
2022-11-04T21:39:20.185Z,10.60
2022-11-04T21:41:48.431Z,10.60
2022-11-04T21:44:16.699Z,10.70
2022-11-04T21:46:45.020Z,10.70
2022-11-04T21:49:14.722Z,10.80
2022-11-04T21:51:43.236Z,10.80
2022-11-04T21:54:13.388Z,10.90
2022-11-04T21:56:41.598Z,10.80
2022-11-04T21:59:17.083Z,10.80
2022-11-04T22:01:47.405Z,10.80
2022-11-04T22:04:16.197Z,10.80
2022-11-04T22:06:45.407Z,10.70
2022-11-04T22:09:15.224Z,10.60
2022-11-04T22:11:43.637Z,10.60
2022-11-04T22:14:13.363Z,10.60
2022-11-04T22:16:42.649Z,10.60
2022-11-04T22:19:13.732Z,10.60
2022-11-04T22:21:43.580Z,10.60
2022-11-04T22:26:49.402Z,10.70
2022-11-04T22:29:18.086Z,10.70
2022-11-04T22:31:46.360Z,10.80
2022-11-04T22:34:16.636Z,10.70
2022-11-04T22:36:44.695Z,10.60
2022-11-04T22:39:16.727Z,10.60
2022-11-04T22:41:46.379Z,10.70
2022-11-04T22:44:18.885Z,10.70
2022-11-04T22:46:48.359Z,10.60
2022-11-04T22:49:16.561Z,10.70
2022-11-04T22:51:44.875Z,10.60
2022-11-04T22:54:13.250Z,10.70
2022-11-04T22:56:41.529Z,10.70
2022-11-04T22:59:11.383Z,10.70
2022-11-04T23:01:41.358Z,10.70
2022-11-04T23:04:20.435Z,10.70
2022-11-04T23:06:49.165Z,10.70
2022-11-04T23:09:18.860Z,10.60
2022-11-04T23:12:07.516Z,10.60
2022-11-04T23:14:53.944Z,10.50
2022-11-04T23:17:42.247Z,10.50
2022-11-04T23:20:13.090Z,10.50
2022-11-04T23:22:59.590Z,10.50
2022-11-04T23:25:28.494Z,10.60
2022-11-04T23:28:12.340Z,10.60
2022-11-04T23:30:42.727Z,10.70
2022-11-04T23:33:17.315Z,10.70
2022-11-04T23:36:06.243Z,10.70
2022-11-04T23:38:35.624Z,10.70
2022-11-04T23:41:24.349Z,10.50
2022-11-04T23:43:53.622Z,10.40
2022-11-04T23:46:43.620Z,10.50
2022-11-04T23:49:31.570Z,10.60
2022-11-04T23:52:18.103Z,10.60
2022-11-04T23:55:03.897Z,10.60
2022-11-04T23:57:53.465Z,10.70
